createdAt,value
2018-11-13T00:01:08.040Z,47.27
2018-11-13T00:03:38.633Z,47.17
2018-11-13T00:06:06.232Z,46.88
2018-11-13T00:08:33.690Z,46.75
2018-11-13T00:11:01.211Z,47.47
2018-11-13T00:13:28.730Z,46.97
2018-11-13T00:15:57.482Z,47.29
2018-11-13T00:18:25.170Z,47.34
2018-11-13T00:20:52.790Z,47.49
2018-11-13T00:23:20.284Z,47.48
2018-11-13T00:25:47.844Z,47.15
2018-11-13T00:28:17.480Z,47.63
2018-11-13T00:30:44.973Z,47.48
2018-11-13T00:33:12.525Z,47.86
2018-11-13T00:35:40.230Z,47.34
2018-11-13T00:38:07.810Z,47.31
2018-11-13T00:40:36.385Z,47.37
2018-11-13T00:43:03.897Z,47.48
2018-11-13T00:45:31.547Z,47.59
2018-11-13T00:47:59.021Z,47.39
2018-11-13T00:50:27.119Z,48.08
2018-11-13T00:52:56.545Z,49.01
2018-11-13T00:55:24.211Z,49.27
2018-11-13T00:57:51.865Z,49.47
2018-11-13T01:00:20.482Z,49.79
2018-11-13T01:02:47.927Z,49.68
2018-11-13T01:05:18.061Z,50.27
2018-11-13T01:07:46.621Z,49.69
2018-11-13T01:10:15.200Z,49.99
2018-11-13T01:12:45.229Z,49.42
2018-11-13T01:15:13.760Z,49.76
2018-11-13T01:17:44.029Z,50.11
2018-11-13T01:20:11.752Z,49.42
2018-11-13T01:22:39.330Z,49.52
2018-11-13T01:25:07.999Z,49.41
2018-11-13T01:27:35.781Z,49.45
2018-11-13T01:30:05.726Z,49.58
2018-11-13T01:32:33.240Z,49.23
2018-11-13T01:35:00.846Z,49.94
2018-11-13T01:37:28.400Z,49.55
2018-11-13T01:39:55.894Z,48.85
2018-11-13T01:42:25.674Z,49.45
2018-11-13T01:44:53.290Z,49.54
2018-11-13T01:47:20.858Z,49.31
2018-11-13T01:49:49.381Z,49.63
2018-11-13T01:52:16.874Z,48.94
2018-11-13T01:54:45.423Z,47.64
2018-11-13T01:57:13.437Z,47.46
2018-11-13T01:59:40.582Z,47.24
2018-11-13T02:02:08.102Z,47.51
2018-11-13T02:04:35.665Z,47.46
2018-11-13T02:07:05.580Z,47.34
2018-11-13T02:09:33.066Z,47.21
2018-11-13T02:12:01.898Z,46.67
2018-11-13T02:14:29.390Z,46.82
2018-11-13T02:16:56.891Z,47.14
2018-11-13T02:19:25.313Z,46.85
2018-11-13T02:21:52.860Z,47.19
2018-11-13T02:24:20.355Z,47.23
2018-11-13T02:26:47.874Z,46.65
2018-11-13T02:29:15.433Z,47.92
2018-11-13T02:31:45.188Z,47.53
2018-11-13T02:34:14.043Z,48.00
2018-11-13T02:36:41.557Z,47.76
2018-11-13T02:39:09.882Z,48.12
2018-11-13T02:41:37.465Z,47.84
2018-11-13T02:44:05.974Z,47.78
2018-11-13T02:46:33.627Z,47.36
2018-11-13T02:49:01.189Z,47.37
2018-11-13T02:51:28.851Z,47.13
2018-11-13T02:53:56.312Z,46.32
2018-11-13T02:56:25.361Z,45.86
2018-11-13T02:58:52.839Z,46.11
2018-11-13T03:01:20.258Z,45.72
2018-11-13T03:03:47.733Z,46.08
2018-11-13T03:06:15.194Z,46.75
2018-11-13T03:08:43.974Z,46.10
2018-11-13T03:11:12.515Z,46.28
2018-11-13T03:13:40.187Z,45.79
2018-11-13T03:16:07.748Z,46.73
2018-11-13T03:18:35.303Z,46.41
2018-11-13T03:21:04.301Z,46.62
2018-11-13T03:23:31.840Z,47.98
2018-11-13T03:25:59.297Z,47.56
2018-11-13T03:28:26.811Z,47.73
2018-11-13T03:30:54.370Z,47.47
2018-11-13T03:33:23.804Z,48.54
2018-11-13T03:35:51.261Z,48.07
2018-11-13T03:38:18.720Z,47.66
2018-11-13T03:40:46.281Z,47.17
2018-11-13T03:43:13.741Z,47.32
2018-11-13T03:45:42.635Z,47.01
2018-11-13T03:48:10.164Z,46.45
2018-11-13T03:50:37.650Z,46.24
2018-11-13T03:53:05.108Z,46.76
2018-11-13T03:55:32.621Z,45.82
2018-11-13T03:58:01.065Z,46.66
2018-11-13T04:00:28.646Z,46.16
2018-11-13T04:02:56.129Z,46.11
2018-11-13T04:05:23.599Z,46.34
2018-11-13T04:07:53.035Z,47.07
2018-11-13T04:10:24.750Z,47.84
2018-11-13T04:12:52.325Z,46.58
2018-11-13T04:15:23.700Z,46.43
2018-11-13T04:17:51.343Z,45.47
2018-11-13T04:21:54.051Z,46.03
2018-11-13T04:24:21.612Z,46.76
2018-11-13T04:26:49.073Z,46.45
2018-11-13T04:29:16.527Z,46.71
2018-11-13T04:31:44.613Z,46.82
2018-11-13T04:34:13.941Z,46.63
2018-11-13T04:36:41.470Z,46.02
2018-11-13T04:39:09.145Z,46.01
2018-11-13T04:41:36.664Z,46.50
2018-11-13T04:44:04.289Z,45.92
2018-11-13T04:46:32.974Z,49.85
2018-11-13T04:49:00.493Z,48.99
2018-11-13T04:51:27.979Z,48.70
2018-11-13T04:53:55.577Z,47.54
2018-11-13T04:56:23.046Z,47.57
2018-11-13T04:58:52.696Z,47.71
2018-11-13T05:01:20.267Z,46.57
2018-11-13T05:03:47.734Z,47.51
2018-11-13T05:06:15.176Z,47.73
2018-11-13T05:08:42.937Z,48.93
2018-11-13T05:11:11.734Z,48.07
2018-11-13T05:13:39.358Z,48.70
2018-11-13T05:16:06.937Z,47.19
2018-11-13T05:18:34.569Z,47.19
2018-11-13T05:21:02.021Z,45.87
2018-11-13T05:23:32.318Z,45.87
2018-11-13T05:26:00.016Z,45.76
2018-11-13T05:28:27.525Z,46.20
2018-11-13T05:30:55.098Z,46.54
2018-11-13T05:33:22.766Z,47.15
2018-11-13T05:35:51.498Z,46.54
2018-11-13T05:38:19.002Z,46.59
2018-11-13T05:40:46.464Z,45.85
2018-11-13T05:43:14.065Z,45.96
2018-11-13T05:45:42.149Z,47.85
2018-11-13T05:48:10.966Z,47.91
2018-11-13T05:50:38.512Z,48.19
2018-11-13T05:53:06.293Z,48.18
2018-11-13T05:55:33.837Z,47.87
2018-11-13T05:58:01.305Z,46.77
2018-11-13T06:00:30.640Z,46.83
2018-11-13T06:02:58.444Z,47.03
2018-11-13T06:05:25.931Z,46.87
2018-11-13T06:07:53.420Z,50.02
2018-11-13T06:10:21.001Z,48.05
2018-11-13T06:12:50.743Z,47.11
2018-11-13T06:15:18.337Z,47.86
2018-11-13T06:17:45.893Z,46.89
2018-11-13T06:20:14.564Z,46.93
2018-11-13T06:25:36.232Z,45.97
2018-11-13T06:28:03.750Z,46.14
2018-11-13T06:30:31.430Z,45.21
2018-11-13T06:32:59.196Z,46.61
2018-11-13T06:35:27.136Z,46.18
2018-11-13T06:37:55.502Z,45.70
2018-11-13T06:40:24.193Z,45.74
2018-11-13T06:42:51.655Z,46.65
2018-11-13T06:45:20.682Z,47.59
2018-11-13T06:47:48.823Z,48.80
2018-11-13T06:50:17.813Z,48.33
2018-11-13T06:52:46.272Z,47.60
2018-11-13T06:55:35.064Z,47.04
2018-11-13T06:58:03.165Z,47.38
2018-11-13T07:00:31.721Z,47.10
2018-11-13T07:02:59.426Z,46.76
2018-11-13T07:05:26.987Z,46.76
2018-11-13T07:07:54.540Z,46.39
2018-11-13T07:10:24.354Z,46.58
2018-11-13T07:12:55.396Z,45.49
2018-11-13T07:15:24.079Z,45.10
2018-11-13T07:17:53.028Z,45.26
2018-11-13T07:20:21.761Z,46.27
2018-11-13T07:22:49.323Z,45.63
2018-11-13T07:25:17.980Z,47.51
2018-11-13T07:27:45.750Z,47.19
2018-11-13T07:30:14.566Z,45.79
2018-11-13T07:32:42.541Z,46.04
2018-11-13T07:35:11.738Z,44.47
2018-11-13T07:37:43.321Z,44.99
2018-11-13T07:40:10.967Z,44.88
2018-11-13T07:42:38.446Z,47.77
2018-11-13T07:45:08.257Z,47.47
2018-11-13T07:47:36.053Z,46.06
2018-11-13T07:50:05.290Z,47.05
2018-11-13T07:52:32.953Z,46.52
2018-11-13T07:55:00.546Z,45.97
2018-11-13T07:57:28.108Z,47.87
2018-11-13T07:59:55.634Z,46.47
2018-11-13T08:02:24.558Z,47.46
2018-11-13T08:04:52.094Z,46.11
2018-11-13T08:07:19.658Z,45.67
2018-11-13T08:09:48.441Z,44.47
2018-11-13T08:12:16.713Z,44.22
2018-11-13T08:14:45.430Z,43.55
2018-11-13T08:17:13.017Z,43.52
2018-11-13T08:19:40.544Z,44.70
2018-11-13T08:22:08.159Z,46.12
2018-11-13T08:24:35.763Z,45.01
2018-11-13T08:27:04.335Z,45.47
2018-11-13T08:29:31.931Z,44.34
2018-11-13T08:31:59.589Z,46.18
2018-11-13T08:34:27.149Z,44.76
2018-11-13T08:36:54.847Z,44.36
2018-11-13T08:39:23.278Z,43.65
2018-11-13T08:41:50.771Z,43.21
2018-11-13T08:44:18.784Z,43.49
2018-11-13T08:46:47.976Z,42.74
2018-11-13T08:49:15.519Z,44.30
2018-11-13T08:51:44.557Z,44.47
2018-11-13T08:54:12.178Z,45.34
2018-11-13T08:56:39.678Z,45.26
2018-11-13T08:59:07.215Z,46.72
2018-11-13T09:01:34.630Z,46.66
2018-11-13T09:04:03.173Z,46.67
2018-11-13T09:06:31.020Z,44.92
2018-11-13T09:08:58.742Z,46.18
2018-11-13T09:11:26.435Z,45.83
2018-11-13T09:13:54.051Z,46.35
2018-11-13T09:16:23.209Z,45.71
2018-11-13T09:18:50.812Z,45.88
2018-11-13T09:21:18.738Z,45.88
2018-11-13T09:23:47.335Z,45.32
2018-11-13T09:26:14.900Z,45.37
2018-11-13T09:28:43.599Z,50.09
2018-11-13T09:31:11.233Z,49.20
2018-11-13T09:33:39.242Z,48.64
2018-11-13T09:36:06.697Z,49.63
2018-11-13T09:38:34.206Z,48.32
2018-11-13T09:41:03.285Z,47.89
2018-11-13T09:43:30.813Z,46.51
2018-11-13T09:45:59.678Z,46.83
2018-11-13T09:48:28.253Z,46.98
2018-11-13T09:50:55.813Z,45.42
2018-11-13T09:53:25.093Z,46.53
2018-11-13T09:55:54.209Z,46.45
2018-11-13T09:58:21.829Z,48.31
2018-11-13T10:00:49.484Z,49.37
2018-11-13T10:03:17.289Z,50.09
2018-11-13T10:05:46.195Z,46.91
2018-11-13T10:08:14.468Z,45.39
2018-11-13T10:10:43.427Z,44.22
2018-11-13T10:13:10.923Z,45.10
2018-11-13T10:15:38.461Z,44.70
2018-11-13T10:18:06.653Z,47.05
2018-11-13T10:20:34.480Z,47.67
2018-11-13T10:23:03.254Z,48.90
2018-11-13T10:25:30.703Z,45.91
2018-11-13T10:27:58.176Z,45.76
2018-11-13T10:30:27.526Z,45.55
2018-11-13T10:32:55.799Z,45.89
2018-11-13T10:35:25.242Z,45.16
2018-11-13T10:37:53.083Z,46.96
2018-11-13T10:40:21.414Z,45.00
2018-11-13T10:42:49.818Z,45.41
2018-11-13T10:45:20.429Z,43.34
2018-11-13T10:47:47.941Z,42.48
2018-11-13T10:50:18.151Z,42.33
2018-11-13T10:52:45.670Z,42.39
2018-11-13T10:55:14.354Z,40.56
2018-11-13T10:57:42.700Z,42.41
2018-11-13T11:00:17.489Z,41.90
2018-11-13T11:02:50.562Z,39.77
2018-11-13T11:05:18.529Z,41.70
2018-11-13T11:07:46.598Z,40.57
2018-11-13T11:10:14.058Z,43.22
2018-11-13T11:12:42.038Z,45.28
2018-11-13T11:15:09.628Z,45.55
2018-11-13T11:17:38.028Z,44.28
2018-11-13T11:20:08.134Z,42.44
2018-11-13T11:22:35.716Z,40.95
2018-11-13T11:25:03.381Z,40.79
2018-11-13T11:27:30.880Z,41.17
2018-11-13T11:29:58.906Z,41.14
2018-11-13T11:32:26.957Z,44.14
2018-11-13T11:34:55.769Z,43.41
2018-11-13T11:37:23.232Z,43.78
2018-11-13T11:39:50.767Z,43.74
2018-11-13T11:42:19.149Z,42.89
2018-11-13T11:44:47.010Z,42.43
2018-11-13T11:47:14.640Z,42.18
2018-11-13T11:49:42.195Z,43.25
2018-11-13T11:52:09.690Z,43.24
2018-11-13T11:54:37.733Z,42.44
2018-11-13T11:57:06.809Z,41.35
2018-11-13T11:59:34.274Z,39.59
2018-11-13T12:02:01.850Z,41.03
2018-11-13T12:04:29.437Z,39.84
2018-11-13T12:06:58.123Z,38.03
2018-11-13T12:09:26.124Z,37.96
2018-11-13T12:11:53.590Z,37.40
2018-11-13T12:14:21.085Z,39.23
2018-11-13T12:16:48.609Z,38.62
2018-11-13T12:19:17.353Z,37.52
2018-11-13T12:21:45.413Z,35.87
2018-11-13T12:24:12.926Z,34.43
2018-11-13T12:26:42.031Z,34.33
2018-11-13T12:29:07.976Z,34.88
2018-11-13T12:31:36.759Z,35.81
2018-11-13T12:34:04.874Z,35.01
2018-11-13T12:36:32.563Z,35.23
2018-11-13T12:39:00.062Z,34.28
2018-11-13T12:41:27.615Z,35.04
2018-11-13T12:43:55.640Z,35.73
2018-11-13T12:46:23.639Z,35.91
2018-11-13T12:48:51.167Z,35.16
2018-11-13T12:51:24.259Z,37.48
2018-11-13T12:53:52.758Z,38.47
2018-11-13T12:56:21.614Z,39.83
2018-11-13T12:58:49.661Z,38.64
2018-11-13T13:01:17.170Z,38.93
2018-11-13T13:03:44.872Z,37.37
2018-11-13T13:06:12.590Z,36.00
2018-11-13T13:08:40.935Z,36.41
2018-11-13T13:11:08.942Z,36.08
2018-11-13T13:13:36.658Z,36.14
2018-11-13T13:16:05.882Z,36.94
2018-11-13T13:18:33.456Z,38.13
2018-11-13T13:21:02.409Z,37.85
2018-11-13T13:23:30.629Z,40.32
2018-11-13T13:25:58.255Z,39.69
2018-11-13T13:28:25.777Z,39.18
2018-11-13T13:30:53.482Z,39.72
2018-11-13T13:33:21.594Z,39.38
2018-11-13T13:35:59.920Z,38.94
2018-11-13T13:38:27.699Z,39.94
2018-11-13T13:40:56.583Z,40.14
2018-11-13T13:43:26.375Z,39.69
2018-11-13T13:45:54.353Z,40.49
2018-11-13T13:48:22.335Z,38.96
2018-11-13T13:50:51.203Z,38.07
2018-11-13T13:53:19.582Z,38.29
2018-11-13T13:55:48.270Z,37.37
2018-11-13T13:58:16.823Z,38.61
2018-11-13T14:00:44.940Z,37.56
2018-11-13T14:03:12.974Z,38.08
2018-11-13T14:05:42.757Z,37.97
2018-11-13T14:08:13.615Z,40.00
2018-11-13T14:11:05.599Z,39.71
2018-11-13T14:13:33.514Z,39.44
2018-11-13T14:16:00.944Z,38.19
2018-11-13T14:18:29.007Z,37.73
2018-11-13T14:20:56.489Z,38.19
2018-11-13T14:23:24.006Z,37.27
2018-11-13T14:25:52.627Z,37.19
2018-11-13T14:28:20.124Z,36.37
2018-11-13T14:30:48.046Z,36.07
2018-11-13T14:33:16.152Z,36.12
2018-11-13T14:35:43.636Z,36.13
2018-11-13T14:38:11.998Z,36.46
2018-11-13T14:40:43.709Z,36.63
2018-11-13T14:43:12.580Z,36.68
2018-11-13T14:45:40.261Z,37.08
2018-11-13T14:48:08.390Z,37.69
2018-11-13T14:50:36.921Z,37.76
2018-11-13T14:53:04.900Z,38.96
2018-11-13T14:55:34.457Z,39.10
2018-11-13T14:58:02.621Z,38.94
2018-11-13T15:00:32.586Z,37.88
2018-11-13T15:03:02.149Z,37.43
2018-11-13T15:05:30.109Z,37.08
2018-11-13T15:08:01.041Z,38.21
2018-11-13T15:10:35.800Z,37.46
2018-11-13T15:13:03.918Z,36.28
2018-11-13T15:15:31.357Z,37.31
2018-11-13T15:17:59.450Z,36.01
2018-11-13T15:20:26.903Z,36.50
2018-11-13T15:22:54.386Z,36.68
2018-11-13T15:25:22.371Z,38.03
2018-11-13T15:27:50.364Z,38.09
2018-11-13T15:30:25.445Z,38.50
2018-11-13T15:32:55.284Z,39.66
2018-11-13T15:35:22.917Z,38.94
2018-11-13T15:37:50.895Z,37.61
2018-11-13T15:40:20.529Z,38.03
2018-11-13T15:42:48.105Z,37.92
2018-11-13T15:45:16.425Z,38.29
2018-11-13T15:47:44.844Z,38.04
2018-11-13T15:50:16.375Z,38.69
2018-11-13T15:52:45.246Z,39.81
2018-11-13T15:55:13.437Z,40.46
2018-11-13T15:57:41.748Z,41.54
2018-11-13T16:00:21.275Z,40.46
2018-11-13T16:02:49.427Z,40.71
2018-11-13T16:05:43.070Z,39.58
2018-11-13T16:08:11.247Z,40.47
2018-11-13T16:10:39.270Z,42.20
2018-11-13T16:13:08.852Z,41.05
2018-11-13T16:15:36.408Z,40.76
2018-11-13T16:18:05.280Z,41.06
2018-11-13T16:20:32.850Z,42.28
2018-11-13T16:23:00.818Z,41.57
2018-11-13T16:25:28.941Z,41.50
2018-11-13T16:27:57.601Z,40.99
2018-11-13T16:30:26.466Z,41.11
2018-11-13T16:32:54.029Z,42.27
2018-11-13T16:35:23.156Z,41.61
2018-11-13T16:37:52.187Z,40.36
2018-11-13T16:40:21.853Z,40.15
2018-11-13T16:42:49.566Z,39.29
2018-11-13T16:45:18.194Z,40.70
2018-11-13T16:47:46.548Z,42.88
2018-11-13T16:50:19.683Z,40.64
2018-11-13T16:52:47.338Z,40.25
2018-11-13T16:55:20.289Z,41.82
2018-11-13T16:57:49.244Z,41.55
2018-11-13T17:00:18.946Z,42.60
2018-11-13T17:02:46.500Z,41.73
2018-11-13T17:05:16.477Z,40.84
2018-11-13T17:07:44.112Z,41.09
2018-11-13T17:10:16.022Z,40.84
2018-11-13T17:12:44.221Z,40.87
2018-11-13T17:15:15.303Z,40.76
2018-11-13T17:17:43.489Z,42.15
2018-11-13T17:20:11.852Z,41.80
2018-11-13T17:22:40.625Z,41.09
2018-11-13T17:25:10.169Z,40.95
2018-11-13T17:27:40.235Z,42.98
2018-11-13T17:30:16.536Z,41.48
2018-11-13T17:32:45.021Z,41.39
2018-11-13T17:35:14.150Z,42.61
2018-11-13T17:37:42.007Z,42.64
2018-11-13T17:40:13.534Z,41.77
2018-11-13T17:42:41.505Z,42.62
2018-11-13T17:45:21.051Z,43.05
2018-11-13T17:47:49.613Z,44.55
2018-11-13T17:50:21.843Z,43.25
2018-11-13T17:52:49.746Z,43.51
2018-11-13T17:55:18.669Z,42.52
2018-11-13T17:57:47.314Z,42.12
2018-11-13T18:00:19.623Z,42.13
2018-11-13T18:02:47.758Z,42.55
2018-11-13T18:05:15.706Z,41.70
2018-11-13T18:07:45.604Z,42.66
2018-11-13T18:10:13.170Z,43.15
2018-11-13T18:12:40.711Z,43.66
2018-11-13T18:15:10.466Z,43.39
2018-11-13T18:17:39.269Z,43.11
2018-11-13T18:20:10.070Z,42.04
2018-11-13T18:22:37.977Z,41.57
2018-11-13T18:25:06.560Z,41.55
2018-11-13T18:27:34.517Z,41.06
2018-11-13T18:30:02.026Z,40.68
2018-11-13T18:32:31.974Z,40.83
2018-11-13T18:34:59.787Z,40.44
2018-11-13T18:37:27.627Z,40.21
2018-11-13T18:39:55.882Z,40.91
2018-11-13T18:42:23.522Z,40.50
2018-11-13T18:44:52.351Z,40.46
2018-11-13T18:47:20.157Z,40.81
2018-11-13T18:49:47.969Z,41.16
2018-11-13T18:52:15.833Z,40.53
2018-11-13T18:54:44.140Z,41.43
2018-11-13T18:57:14.203Z,40.97
2018-11-13T18:59:41.921Z,41.39
2018-11-13T19:02:09.558Z,40.83
2018-11-13T19:04:37.271Z,40.60
2018-11-13T19:07:05.563Z,40.67
2018-11-13T19:09:34.188Z,40.42
2018-11-13T19:12:01.975Z,40.50
2018-11-13T19:14:29.682Z,41.09
2018-11-13T19:16:57.718Z,40.83
2018-11-13T19:19:25.500Z,40.90
2018-11-13T19:21:55.259Z,41.90
2018-11-13T19:24:22.857Z,41.88
2018-11-13T19:26:50.410Z,41.83
2018-11-13T19:29:18.009Z,42.21
2018-11-13T19:31:45.765Z,41.67
2018-11-13T19:34:14.270Z,42.12
2018-11-13T19:36:41.838Z,42.37
2018-11-13T19:39:10.670Z,42.25
2018-11-13T19:41:38.162Z,42.42
2018-11-13T19:44:05.615Z,42.89
2018-11-13T19:46:35.359Z,44.37
2018-11-13T19:49:03.130Z,44.23
2018-11-13T19:51:30.711Z,44.33
2018-11-13T19:53:58.295Z,44.42
2018-11-13T19:56:25.905Z,43.57
2018-11-13T19:58:54.382Z,44.35
2018-11-13T20:01:22.080Z,45.32
2018-11-13T20:03:49.601Z,44.35
2018-11-13T20:06:17.114Z,44.04
2018-11-13T20:08:46.637Z,44.65
2018-11-13T20:11:15.536Z,43.61
2018-11-13T20:13:43.123Z,43.57
2018-11-13T20:16:10.725Z,43.35
2018-11-13T20:18:38.146Z,43.40
2018-11-13T20:21:06.167Z,43.04
2018-11-13T20:23:34.637Z,43.27
2018-11-13T20:26:02.146Z,43.61
2018-11-13T20:28:29.760Z,43.22
2018-11-13T20:30:58.731Z,43.35
2018-11-13T20:33:26.442Z,42.64
2018-11-13T20:35:55.482Z,42.74
2018-11-13T20:38:22.997Z,42.89
2018-11-13T20:40:50.483Z,43.93
2018-11-13T20:43:18.128Z,43.68
2018-11-13T20:45:45.708Z,43.31
2018-11-13T20:48:14.103Z,42.95
2018-11-13T20:50:42.088Z,43.41
2018-11-13T20:53:09.710Z,43.41
2018-11-13T20:55:37.218Z,43.52
2018-11-13T20:58:05.557Z,42.95
2018-11-13T21:00:35.796Z,43.40
2018-11-13T21:03:03.961Z,43.00
2018-11-13T21:05:31.438Z,42.66
2018-11-13T21:07:59.009Z,43.35
2018-11-13T21:10:32.611Z,43.06
2018-11-13T21:13:01.305Z,43.03
2018-11-13T21:15:29.316Z,43.20
2018-11-13T21:17:56.836Z,43.62
2018-11-13T21:20:25.403Z,44.25
2018-11-13T21:22:52.487Z,44.91
2018-11-13T21:25:23.029Z,44.25
2018-11-13T21:27:54.090Z,44.53
2018-11-13T21:30:22.081Z,44.56
2018-11-13T21:32:50.338Z,44.75
2018-11-13T21:35:18.037Z,44.46
2018-11-13T21:37:47.624Z,44.58
2018-11-13T21:40:16.930Z,44.76
2018-11-13T21:42:45.940Z,44.42
2018-11-13T21:45:14.183Z,44.41
2018-11-13T21:47:41.930Z,44.49
2018-11-13T21:50:12.222Z,44.39
2018-11-13T21:52:40.105Z,44.20
2018-11-13T21:55:10.422Z,44.69
2018-11-13T21:57:37.976Z,44.42
2018-11-13T22:00:11.938Z,44.35
2018-11-13T22:02:40.918Z,44.44
2018-11-13T22:05:08.866Z,44.15
2018-11-13T22:07:36.765Z,44.55
2018-11-13T22:10:05.240Z,44.56
2018-11-13T22:12:34.240Z,44.70
2018-11-13T22:15:01.802Z,44.50
2018-11-13T22:17:29.472Z,44.29
2018-11-13T22:19:57.437Z,44.11
2018-11-13T22:22:24.642Z,44.43
2018-11-13T22:24:53.063Z,44.58
2018-11-13T22:27:20.538Z,44.24
2018-11-13T22:29:47.922Z,44.80
2018-11-13T22:32:15.489Z,44.54
2018-11-13T22:34:42.941Z,44.23
2018-11-13T22:37:12.241Z,44.44
2018-11-13T22:39:40.007Z,44.27
2018-11-13T22:42:07.461Z,44.77
2018-11-13T22:44:34.909Z,44.42
2018-11-13T22:47:02.461Z,44.23
2018-11-13T22:49:30.831Z,44.58
2018-11-13T22:51:58.382Z,45.00
2018-11-13T22:54:26.505Z,44.46
2018-11-13T22:56:54.021Z,44.71
2018-11-13T22:59:21.484Z,44.28
2018-11-13T23:01:50.369Z,44.35
2018-11-13T23:04:17.807Z,45.03
2018-11-13T23:06:45.256Z,44.91
2018-11-13T23:09:13.409Z,44.78
2018-11-13T23:11:41.101Z,45.66
2018-11-13T23:14:09.406Z,45.81
2018-11-13T23:16:38.168Z,45.47
2018-11-13T23:19:05.690Z,45.31
2018-11-13T23:21:33.157Z,45.44
2018-11-13T23:24:00.777Z,45.58
2018-11-13T23:26:30.251Z,45.25
2018-11-13T23:28:57.779Z,45.60
2018-11-13T23:31:25.288Z,45.84
2018-11-13T23:33:53.171Z,46.22
2018-11-13T23:37:54.018Z,46.20
2018-11-13T23:40:22.920Z,46.54
2018-11-13T23:42:50.967Z,46.19
2018-11-13T23:45:19.493Z,46.58
2018-11-13T23:47:47.349Z,46.27
2018-11-13T23:50:16.777Z,46.64
2018-11-13T23:52:45.505Z,46.01
2018-11-13T23:55:13.791Z,46.45
2018-11-13T23:57:41.895Z,45.92
